Hlavní strana
METAR-TAF:

METAR-TAF

Letiště :

Ljungbyhed, Švédsko

zeměpisná šířka: 56-04N, zeměpisná délka: 013-12E, výška: 43 m

Aktuální stav počasí

Zpráva byla vytvořena před 22 minutami, v 08:20 UTC
Východní vítr 7 kt
Teplota 19°C
Vlhkost vzduchu 56%
Tlak 1011 hPa
Viditelnost 10 km a více
Žádná oblačnost pod 1500 m, nevyskytují se cumulonimby.

METAR: ESTL 260820Z 09007KT CAVOK 19/10 Q1011

Čas: 10:42 (08:42 UTC)

Předpověď počasí

Zpráva byla vytvořena před 31 minutami, v 08:11 UTC
Předpověď platná od 26 v 09 UTC do 26 v 15 UTC
Východojihovýchodní vítr 8 kt
Viditelnost 10 km a více
Žádná oblačnost pod 1500 m, nevyskytují se cumulonimby.

TAF: ESTL 260811Z 2609/2615 11008KT CAVOK

Stav a předpovědi počasí z více než 4 000 letišť (zprávy METAR a TAF).

Červené a žluté tečky na mapě představují dostupné meteorologické stanice.

Když kurzor umístíte na tečku, zobrazí se název stanice.

Pak kliknutím zobrazíte stav a předpověď počasí.

Chcete-li změnit mapu, kliknutím na zelené tlačítko se znaménkem +mapu přiblížíte, kliknutím na zelené tlačítko se znaménkem – mapu oddálíte a kliknutím na zelené šipky přejdete na sousední mapy.


METAR-TAF: